createdAt,value
2022-12-03T00:02:21.302Z,19.40
2022-12-03T00:04:48.307Z,19.40
2022-12-03T00:07:15.119Z,19.40
2022-12-03T00:09:42.821Z,19.40
2022-12-03T00:12:09.713Z,19.40
2022-12-03T00:14:41.299Z,19.40
2022-12-03T00:17:11.246Z,19.40
2022-12-03T00:19:38.054Z,19.40
2022-12-03T00:22:04.963Z,19.40
2022-12-03T00:24:31.773Z,19.40
2022-12-03T00:26:58.585Z,19.40
2022-12-03T00:29:25.445Z,19.40
2022-12-03T00:31:52.371Z,19.40
2022-12-03T00:34:19.257Z,19.40
2022-12-03T00:36:46.113Z,19.40
2022-12-03T00:39:12.945Z,19.40
2022-12-03T00:41:39.766Z,19.40
2022-12-03T00:44:06.665Z,19.40
2022-12-03T00:46:33.585Z,19.40
2022-12-03T00:49:00.580Z,19.40
2022-12-03T00:51:27.410Z,19.30
2022-12-03T00:53:54.290Z,19.30
2022-12-03T00:56:21.162Z,19.40
2022-12-03T00:58:48.058Z,19.30
2022-12-03T01:01:14.928Z,19.40
2022-12-03T01:03:41.778Z,19.30
2022-12-03T01:06:08.831Z,19.40
2022-12-03T01:08:35.874Z,19.40
2022-12-03T01:11:02.767Z,19.30
2022-12-03T01:13:29.599Z,19.30
2022-12-03T01:15:56.442Z,19.30
2022-12-03T01:18:23.280Z,19.40
2022-12-03T01:20:50.103Z,19.30
2022-12-03T01:23:16.957Z,19.30
2022-12-03T01:25:43.763Z,19.30
2022-12-03T01:28:10.595Z,19.30
2022-12-03T01:30:57.495Z,19.30
2022-12-03T01:33:24.312Z,19.30
2022-12-03T01:35:51.205Z,19.30
2022-12-03T01:38:18.033Z,19.30
2022-12-03T01:40:44.851Z,19.30
2022-12-03T01:43:11.648Z,19.20
2022-12-03T01:45:38.531Z,19.30
2022-12-03T01:48:05.443Z,19.20
2022-12-03T01:50:34.011Z,19.20
2022-12-03T01:53:03.148Z,19.30
2022-12-03T01:55:30.510Z,19.20
2022-12-03T01:58:00.515Z,19.20
2022-12-03T02:00:28.689Z,19.20
2022-12-03T02:03:07.512Z,19.20
2022-12-03T02:05:34.502Z,19.20
2022-12-03T02:08:01.698Z,19.30
2022-12-03T02:10:33.887Z,19.20
2022-12-03T02:13:09.638Z,19.20
2022-12-03T02:15:38.474Z,19.20
2022-12-03T02:18:06.941Z,19.20
2022-12-03T02:21:00.242Z,19.20
2022-12-03T02:23:53.093Z,19.20
2022-12-03T02:26:20.385Z,19.30
2022-12-03T02:28:47.180Z,19.20
2022-12-03T02:31:14.149Z,19.20
2022-12-03T02:33:41.058Z,19.20
2022-12-03T02:36:08.294Z,19.20
2022-12-03T02:38:35.885Z,19.20
2022-12-03T02:41:07.562Z,19.20
2022-12-03T02:43:34.614Z,19.20
2022-12-03T02:46:03.756Z,19.20
2022-12-03T02:48:34.817Z,19.20
2022-12-03T02:51:05.358Z,19.20
2022-12-03T02:53:44.565Z,19.20
2022-12-03T02:56:17.478Z,19.20
2022-12-03T02:58:47.057Z,19.20
2022-12-03T03:01:17.129Z,19.20
2022-12-03T03:03:46.564Z,19.20
2022-12-03T03:06:14.829Z,19.20
2022-12-03T03:08:43.001Z,19.20
2022-12-03T03:11:10.470Z,19.20
2022-12-03T03:13:38.364Z,19.20
2022-12-03T03:16:07.090Z,19.20
2022-12-03T03:18:35.141Z,19.20
2022-12-03T03:21:03.065Z,19.20
2022-12-03T03:23:29.881Z,19.10
2022-12-03T03:26:08.695Z,19.10
2022-12-03T03:28:42.623Z,19.10
2022-12-03T03:31:12.410Z,19.20
2022-12-03T03:33:40.594Z,19.10
2022-12-03T03:36:08.280Z,19.10
2022-12-03T03:38:37.018Z,19.20
2022-12-03T03:41:06.890Z,19.10
2022-12-03T03:43:35.597Z,19.10
2022-12-03T03:46:05.462Z,19.10
2022-12-03T03:48:34.666Z,19.10
2022-12-03T03:51:03.874Z,19.10
2022-12-03T03:53:31.073Z,19.10
2022-12-03T03:55:58.081Z,19.10
2022-12-03T03:58:24.918Z,19.10
2022-12-03T04:00:52.127Z,19.10
2022-12-03T04:03:18.969Z,19.10
2022-12-03T04:05:46.752Z,19.10
2022-12-03T04:08:13.675Z,19.10
2022-12-03T04:10:59.168Z,19.10
2022-12-03T04:13:26.014Z,19.10
2022-12-03T04:15:52.825Z,19.10
2022-12-03T04:18:38.026Z,19.10
2022-12-03T04:21:23.354Z,19.10
2022-12-03T04:23:50.188Z,19.10
2022-12-03T04:26:35.597Z,19.10
2022-12-03T04:29:02.584Z,19.10
2022-12-03T04:31:48.117Z,19.10
2022-12-03T04:34:33.651Z,19.10
2022-12-03T04:37:00.460Z,19.10
2022-12-03T04:39:27.310Z,19.00
2022-12-03T04:41:54.284Z,19.10
2022-12-03T04:44:39.256Z,19.10
2022-12-03T04:47:14.947Z,19.10
2022-12-03T04:49:59.596Z,19.10
2022-12-03T04:52:26.464Z,19.10
2022-12-03T04:54:53.527Z,19.10
2022-12-03T04:57:20.506Z,19.10
2022-12-03T05:03:37.531Z,19.10
2022-12-03T05:06:04.412Z,19.10
2022-12-03T05:08:31.251Z,19.20
2022-12-03T05:10:58.119Z,19.20
2022-12-03T05:13:24.992Z,19.00
2022-12-03T05:15:51.856Z,18.80
2022-12-03T05:18:18.723Z,18.40
2022-12-03T05:20:52.765Z,18.00
2022-12-03T05:23:20.297Z,17.70
2022-12-03T05:25:47.116Z,17.40
2022-12-03T05:28:14.230Z,17.10
2022-12-03T05:30:41.286Z,16.80
2022-12-03T05:42:57.363Z,16.60
2022-12-03T10:07:49.445Z,15.90
2022-12-03T10:10:20.817Z,18.60
2022-12-03T10:12:48.553Z,18.60
2022-12-03T10:15:17.874Z,18.60
2022-12-03T10:17:47.768Z,18.60
2022-12-03T10:20:18.196Z,18.60
2022-12-03T10:22:45.294Z,18.60
2022-12-03T10:25:14.764Z,18.60
2022-12-03T10:27:42.436Z,18.60
2022-12-03T10:30:22.406Z,18.60
2022-12-03T10:32:51.288Z,18.60
2022-12-03T10:35:21.973Z,18.60
2022-12-03T10:37:54.921Z,18.60
2022-12-03T10:40:27.396Z,18.60
2022-12-03T10:43:32.598Z,18.60
2022-12-03T10:46:03.888Z,18.60
2022-12-03T10:48:31.212Z,18.60
2022-12-03T10:51:03.503Z,18.60
2022-12-03T10:53:33.055Z,18.60
2022-12-03T10:56:02.977Z,18.60
2022-12-03T10:58:34.496Z,18.60
2022-12-03T11:01:06.181Z,18.60
2022-12-03T11:03:36.915Z,18.60
2022-12-03T11:06:04.155Z,18.60
2022-12-03T11:08:34.458Z,18.60
2022-12-03T11:11:05.849Z,18.60
2022-12-03T11:13:32.599Z,18.60
2022-12-03T11:16:01.333Z,18.60
2022-12-03T11:18:37.290Z,18.60
2022-12-03T11:21:08.657Z,18.60
2022-12-03T11:23:44.615Z,18.60
2022-12-03T11:26:38.700Z,18.60
2022-12-03T11:29:16.104Z,18.60
2022-12-03T11:31:47.960Z,18.60
2022-12-03T11:34:20.704Z,18.60
2022-12-03T11:37:12.404Z,18.60
2022-12-03T11:39:48.060Z,18.60
2022-12-03T11:42:26.526Z,18.60
2022-12-03T11:45:05.373Z,18.60
2022-12-03T11:47:39.982Z,18.60
2022-12-03T11:50:39.858Z,18.60
2022-12-03T11:53:16.041Z,18.60
2022-12-03T11:55:48.857Z,18.60
2022-12-03T11:58:28.611Z,18.60
2022-12-03T12:01:00.744Z,18.60
2022-12-03T12:03:49.486Z,18.50
2022-12-03T12:06:19.160Z,18.60
2022-12-03T12:08:52.053Z,18.60
2022-12-03T12:11:41.536Z,18.50
2022-12-03T12:14:12.564Z,18.60
2022-12-03T12:16:45.924Z,18.50
2022-12-03T12:19:29.515Z,18.60
2022-12-03T12:22:15.924Z,18.50
2022-12-03T12:24:51.642Z,18.60
2022-12-03T12:27:23.379Z,18.60
2022-12-03T12:30:08.250Z,18.60
2022-12-03T12:32:43.650Z,18.50
2022-12-03T12:35:32.626Z,18.60
2022-12-03T12:38:08.831Z,18.60
2022-12-03T12:40:40.879Z,18.60
2022-12-03T12:43:27.524Z,18.60
2022-12-03T12:45:56.511Z,18.60
2022-12-03T12:48:28.256Z,18.60
2022-12-03T12:51:11.784Z,18.60
2022-12-03T12:53:40.710Z,18.60
2022-12-03T12:56:11.852Z,18.60
2022-12-03T12:58:38.642Z,18.60
2022-12-03T13:01:11.424Z,18.60
2022-12-03T13:03:39.524Z,18.60
2022-12-03T13:06:07.398Z,18.60
2022-12-03T13:08:40.344Z,18.60
2022-12-03T13:11:25.087Z,18.60
2022-12-03T13:13:52.564Z,18.60
2022-12-03T13:16:23.199Z,18.60
2022-12-03T13:18:55.045Z,18.60
2022-12-03T13:21:23.489Z,18.60
2022-12-03T13:23:57.968Z,18.60
2022-12-03T13:26:37.793Z,18.60
2022-12-03T13:29:16.715Z,18.60
2022-12-03T13:32:11.571Z,18.60
2022-12-03T13:34:38.527Z,18.60
2022-12-03T13:37:14.320Z,18.60
2022-12-03T13:39:46.801Z,18.60
2022-12-03T13:42:40.660Z,18.60
2022-12-03T13:45:16.758Z,18.60
2022-12-03T13:47:53.817Z,18.60
2022-12-03T13:50:35.616Z,18.60
2022-12-03T13:53:22.321Z,18.60
2022-12-03T13:55:55.422Z,18.50
2022-12-03T13:58:22.214Z,18.60
2022-12-03T14:00:49.225Z,18.50
2022-12-03T14:03:16.146Z,18.50
2022-12-03T14:05:43.037Z,18.50
2022-12-03T14:08:09.999Z,18.50
2022-12-03T14:10:36.827Z,18.50
2022-12-03T14:13:03.636Z,18.50
2022-12-03T14:15:30.455Z,18.50
2022-12-03T14:17:57.349Z,18.50
2022-12-03T14:20:24.224Z,18.50
2022-12-03T14:22:54.034Z,18.50
2022-12-03T14:25:26.024Z,18.50
2022-12-03T14:27:52.851Z,18.50
2022-12-03T14:30:19.740Z,18.40
2022-12-03T14:32:47.503Z,18.40
2022-12-03T14:35:14.408Z,18.40
2022-12-03T14:37:41.395Z,18.40
2022-12-03T14:40:09.174Z,18.40
2022-12-03T14:42:36.832Z,18.40
2022-12-03T14:45:03.963Z,18.40
2022-12-03T14:47:30.846Z,18.40
2022-12-03T14:49:57.968Z,18.40
2022-12-03T14:52:24.899Z,18.40
2022-12-03T14:54:51.700Z,18.40
2022-12-03T14:57:18.674Z,18.40
2022-12-03T14:59:47.202Z,18.40
2022-12-03T15:02:14.268Z,18.40
2022-12-03T15:04:42.089Z,18.40
2022-12-03T15:07:09.726Z,18.40
2022-12-03T15:09:36.711Z,18.40
2022-12-03T15:12:04.710Z,18.40
2022-12-03T15:14:31.556Z,18.40
2022-12-03T15:16:58.544Z,18.40
2022-12-03T15:19:26.114Z,18.40
2022-12-03T15:21:53.011Z,18.40
2022-12-03T15:24:19.831Z,18.30
2022-12-03T15:26:46.738Z,18.30
2022-12-03T15:29:13.533Z,18.30
2022-12-03T15:31:40.403Z,18.30
2022-12-03T15:34:07.389Z,18.30
2022-12-03T15:36:34.203Z,18.30
2022-12-03T15:39:01.048Z,18.30
2022-12-03T15:41:30.720Z,18.20
2022-12-03T15:43:59.948Z,18.30
2022-12-03T15:46:28.119Z,18.30
2022-12-03T15:48:55.802Z,18.30
2022-12-03T15:51:22.944Z,18.20
2022-12-03T15:53:50.413Z,18.30
2022-12-03T15:56:17.239Z,18.20
2022-12-03T15:58:44.327Z,18.30
2022-12-03T16:01:13.697Z,18.30
2022-12-03T16:03:41.877Z,18.30
2022-12-03T16:06:09.144Z,18.30
2022-12-03T16:08:36.113Z,18.20
2022-12-03T16:11:03.056Z,18.20
2022-12-03T16:13:29.888Z,18.20
2022-12-03T16:15:56.750Z,18.20
2022-12-03T16:18:23.708Z,18.20
2022-12-03T16:20:50.584Z,18.20
2022-12-03T16:23:17.419Z,18.20
2022-12-03T16:25:44.381Z,18.20
2022-12-03T16:28:11.280Z,18.20
2022-12-03T16:30:38.205Z,18.20
2022-12-03T16:33:05.158Z,18.20
2022-12-03T16:35:31.982Z,18.20
2022-12-03T16:37:58.760Z,18.20
2022-12-03T16:40:25.787Z,18.20
2022-12-03T16:42:52.637Z,18.20
2022-12-03T16:45:22.460Z,18.20
2022-12-03T16:47:50.080Z,18.20
2022-12-03T16:50:23.075Z,18.20
2022-12-03T16:52:54.518Z,18.20
2022-12-03T16:55:21.382Z,18.30
2022-12-03T16:57:48.288Z,18.20
2022-12-03T17:00:16.296Z,18.30
2022-12-03T17:02:43.215Z,18.20
2022-12-03T17:05:10.112Z,18.30
2022-12-03T17:07:37.011Z,18.30
2022-12-03T17:10:04.743Z,18.20
2022-12-03T17:13:00.693Z,18.30
2022-12-03T17:15:18.468Z,18.30
2022-12-03T17:17:45.304Z,18.40
2022-12-03T17:20:13.378Z,18.40
2022-12-03T17:22:40.718Z,18.50
2022-12-03T17:25:07.946Z,18.50
2022-12-03T17:27:34.867Z,18.50
2022-12-03T17:30:01.731Z,18.50
2022-12-03T17:32:28.734Z,18.60
2022-12-03T17:34:55.601Z,18.60
2022-12-03T17:37:22.812Z,18.60
2022-12-03T17:39:49.624Z,18.60
2022-12-03T17:42:16.451Z,18.60
2022-12-03T17:44:43.346Z,18.70
2022-12-03T17:47:10.170Z,18.70
2022-12-03T17:49:37.076Z,18.70
2022-12-03T17:52:04.393Z,18.70
2022-12-03T17:54:55.194Z,18.80
2022-12-03T17:57:18.579Z,18.80
2022-12-03T17:59:45.435Z,18.80
2022-12-03T18:02:12.426Z,18.80
2022-12-03T18:04:39.324Z,18.80
2022-12-03T18:07:06.218Z,18.80
2022-12-03T18:09:33.689Z,18.90
2022-12-03T18:12:00.556Z,18.80
2022-12-03T18:14:27.450Z,18.90
2022-12-03T18:16:54.265Z,18.90
2022-12-03T18:19:21.087Z,18.90
2022-12-03T18:21:48.192Z,18.90
2022-12-03T18:24:15.082Z,18.90
2022-12-03T18:26:43.314Z,18.90
2022-12-03T18:29:10.206Z,18.90
2022-12-03T18:31:37.100Z,18.90
2022-12-03T18:34:04.468Z,18.90
2022-12-03T18:36:36.030Z,18.90
2022-12-03T18:39:05.084Z,19.00
2022-12-03T18:41:33.646Z,19.00
2022-12-03T18:44:03.990Z,19.00
2022-12-03T18:46:52.540Z,18.90
2022-12-03T18:49:17.758Z,19.00
2022-12-03T18:51:44.637Z,19.00
2022-12-03T18:54:14.576Z,19.00
2022-12-03T18:56:41.558Z,19.00
2022-12-03T18:59:08.933Z,19.00
2022-12-03T19:01:36.487Z,19.00
2022-12-03T19:04:03.612Z,19.00
2022-12-03T19:06:30.698Z,19.00
2022-12-03T19:08:58.013Z,19.00
2022-12-03T19:11:25.151Z,19.00
2022-12-03T19:13:52.217Z,19.00
2022-12-03T19:16:19.309Z,19.00
2022-12-03T19:18:46.235Z,19.00
2022-12-03T19:21:15.684Z,19.00
2022-12-03T19:24:04.226Z,19.00
2022-12-03T19:26:30.279Z,19.00
2022-12-03T19:28:57.152Z,19.00
2022-12-03T19:31:24.055Z,19.00
2022-12-03T19:33:51.933Z,19.00
2022-12-03T19:36:36.689Z,19.00
2022-12-03T19:39:03.534Z,19.00
2022-12-03T19:41:30.811Z,19.00
2022-12-03T19:43:58.538Z,19.00
2022-12-03T19:46:28.945Z,19.00
2022-12-03T19:48:56.008Z,19.00
2022-12-03T19:51:38.254Z,19.00
2022-12-03T19:54:07.011Z,19.00
2022-12-03T19:56:35.035Z,19.00
2022-12-03T19:59:02.262Z,19.00
2022-12-03T20:01:31.207Z,19.00
2022-12-03T20:04:00.559Z,19.00
2022-12-03T20:06:29.857Z,19.00
2022-12-03T20:08:58.348Z,19.00
2022-12-03T20:11:28.060Z,19.00
2022-12-03T20:14:00.792Z,19.00
2022-12-03T20:16:29.389Z,19.00
2022-12-03T20:18:58.560Z,19.00
2022-12-03T20:21:26.348Z,19.00
2022-12-03T20:23:53.463Z,19.00
2022-12-03T20:26:21.637Z,19.00
2022-12-03T20:28:48.765Z,19.00
2022-12-03T20:31:18.636Z,19.00
2022-12-03T20:33:48.442Z,19.00
2022-12-03T20:36:16.973Z,19.00
2022-12-03T20:38:44.256Z,19.00
2022-12-03T20:41:14.346Z,19.00
2022-12-03T20:43:41.816Z,19.00
2022-12-03T20:46:10.837Z,19.10
2022-12-03T20:48:38.290Z,19.10
2022-12-03T20:51:06.938Z,19.00
2022-12-03T20:53:34.891Z,19.00
2022-12-03T20:56:02.816Z,19.00
2022-12-03T20:58:31.626Z,19.00
2022-12-03T21:01:19.014Z,19.00
2022-12-03T21:03:47.343Z,19.00
2022-12-03T21:06:15.121Z,19.00
2022-12-03T21:08:43.089Z,19.00
2022-12-03T21:11:16.424Z,19.00
2022-12-03T21:13:44.418Z,19.00
2022-12-03T21:16:29.842Z,19.00
2022-12-03T21:19:07.339Z,19.00
2022-12-03T21:21:35.546Z,19.10
2022-12-03T21:24:02.344Z,19.00
2022-12-03T21:26:29.249Z,19.10
2022-12-03T21:28:56.292Z,19.10
2022-12-03T21:31:26.349Z,19.10
2022-12-03T21:33:54.458Z,19.10
2022-12-03T21:36:21.824Z,19.10
2022-12-03T21:38:48.785Z,19.10
2022-12-03T21:41:17.106Z,19.10
2022-12-03T21:43:44.714Z,19.10
2022-12-03T21:47:12.464Z,19.10
2022-12-03T21:49:04.120Z,19.10
2022-12-03T21:51:31.159Z,19.10
2022-12-03T21:53:58.091Z,19.10
2022-12-03T21:56:24.950Z,19.10
2022-12-03T21:58:51.822Z,19.10
2022-12-03T22:01:22.272Z,19.10
2022-12-03T22:03:49.781Z,19.10
2022-12-03T22:06:17.790Z,19.10
2022-12-03T22:08:45.206Z,19.10
2022-12-03T22:11:15.330Z,19.10
2022-12-03T22:13:42.329Z,19.10
2022-12-03T22:16:12.219Z,19.10
2022-12-03T22:18:39.417Z,19.10
2022-12-03T22:21:08.230Z,19.10
2022-12-03T22:23:35.222Z,19.10
2022-12-03T22:26:05.085Z,19.00
2022-12-03T22:28:32.944Z,19.00
2022-12-03T22:31:00.200Z,19.00
2022-12-03T22:33:27.111Z,19.00
2022-12-03T22:35:58.730Z,19.00
2022-12-03T22:38:26.086Z,19.00
2022-12-03T22:40:53.051Z,19.00
2022-12-03T22:43:20.962Z,19.00
2022-12-03T22:45:48.344Z,19.00
2022-12-03T22:48:15.329Z,19.00
2022-12-03T22:50:44.720Z,19.00
2022-12-03T22:53:12.709Z,19.00
2022-12-03T22:55:39.685Z,19.00
2022-12-03T22:58:07.112Z,19.00
2022-12-03T23:00:36.818Z,19.00
2022-12-03T23:03:04.799Z,19.00
2022-12-03T23:05:38.537Z,19.00
2022-12-03T23:08:07.074Z,18.90
2022-12-03T23:10:36.233Z,18.90
2022-12-03T23:13:04.464Z,19.00
2022-12-03T23:15:32.473Z,18.90
2022-12-03T23:17:59.406Z,18.90
2022-12-03T23:20:27.016Z,18.90
2022-12-03T23:22:54.792Z,18.90
2022-12-03T23:25:22.095Z,18.90
2022-12-03T23:27:49.318Z,18.90
2022-12-03T23:30:17.209Z,18.90
2022-12-03T23:32:44.595Z,18.90
2022-12-03T23:35:12.732Z,18.90
2022-12-03T23:37:43.092Z,18.90
2022-12-03T23:40:10.931Z,18.80
2022-12-03T23:42:37.758Z,18.80
2022-12-03T23:45:04.947Z,18.80
2022-12-03T23:47:31.771Z,18.80
2022-12-03T23:49:58.628Z,18.80
2022-12-03T23:52:25.666Z,18.80
2022-12-03T23:54:52.447Z,18.80
2022-12-03T23:57:19.390Z,18.80
2022-12-03T23:59:46.228Z,18.80
